Ambrose, Georgia
Current Conditions -  °F | °C
As of 1:15 PM on Saturday 25 Oct 2014 (Local Time) from KDQH Reporting Station
Clear Clear  
Wind Chill: 25°   Ceiling: Unl
Heat Index: 25°   Visibility: 10mi
Dew Point:   Wind: 3mph
Humidity: 29%   Direction: 360°N
Pressure: 30.03"   Gusts: NA
Location:  31.59°N, 83.01°W
Report Text: KDQH 251715Z AUTO 36003KT 10SM CLR 25/06 A3003 RMK AO2
Loading
Personal Weather Stations






























Interactive Weather Map
Tropical Storm Tracking
New forecast layout! Learn more

10-Day Weather Forecast

Advertisements
Track Severe Weather on mobile